Latest Weather Observations for Coolangatta

IDN60801

Issued at 7:12 am EDT Wednesday 21 October 2020 (issued every 10 minutes, with the page automatically refreshed every 10 minutes)

About weather observations | Map of weather stations | Latest weather observations for NSW | Other Formats
Station Details ID: 040717 Name: COOLANGATTA Lat: -28.17 Lon: 153.51 Height: 4.0 m
Data from the previous 72 hours. | See also: Recent months at Coolangatta

Observations at Coolangatta are collected in the Queensland time zone, which does not include daylight savings during the summer period. Therefore 'Rain since 9am' totals and other values are based on the Queensland time zone.

Date/Time
EDT
Temp
°C
App
Temp
°C
Dew
Point
°C
Rel
Hum
%
Delta-T
°C
Wind Press
QNH
hPa
Press
MSL
hPa
Rain since
9am
mm
Dir  Spd
km/h
Gust
km/h
Spd
kts
Gust
kts
21/07:00am 18.4 16.5 11.9 66 3.6 SSW 13 17 7 9 1016.8 1016.8 0.0
21/06:30am 16.8 16.1 11.9 73 2.7 SW 7 11 4 6 1016.8 1016.8 0.0
21/06:00am 16.9 15.4 11.8 72 2.8 SW 11 19 6 10 1016.7 1016.7 0.0
21/05:30am 16.7 15.6 12.0 74 2.6 SW 9 15 5 8 1016.2 1016.2 0.0
21/05:00am 17.1 15.6 11.8 71 2.9 SSW 11 19 6 10 1016.0 1016.0 0.0
21/04:30am 17.3 15.8 12.0 71 2.9 SW 11 15 6 8 1015.9 1015.9 0.0
21/04:00am 17.5 16.4 12.0 70 3.0 SW 9 15 5 8 1015.9 1015.9 0.0
21/03:30am 17.9 16.3 11.7 67 3.4 SW 11 15 6 8 1016.0 1016.0 0.0
21/03:00am 18.1 16.2 11.7 66 3.5 SW 13 17 7 9 1016.0 1016.0 0.0
21/02:30am 17.9 16.0 11.7 67 3.4 SW 13 19 7 10 1016.2 1016.2 0.0
21/02:00am 17.8 15.9 11.8 68 3.3 SW 13 20 7 11 1016.4 1016.4 0.0
21/01:30am 17.4 15.8 11.7 69 3.1 SSW 11 17 6 9 1016.5 1016.5 0.0
21/01:00am 17.5 16.0 11.8 69 3.1 SSW 11 15 6 8 1016.7 1016.7 0.0
21/12:30am 17.6 16.5 11.9 69 3.1 SSW 9 15 5 8 1017.1 1017.1 0.0
21/12:00am 17.6 16.1 11.9 69 3.1 SSW 11 15 6 8 1017.3 1017.3 0.0
 
Date/Time
EDT
Temp
°C
App
Temp
°C
Dew
Point
°C
Rel
Hum
%
Delta-T
°C
Wind Press
QNH
hPa
Press
MSL
hPa
Rain since
9am
mm
Dir  Spd
km/h
Gust
km/h
Spd
kts
Gust
kts
20/11:30pm 17.8 16.3 12.0 69 3.2 SSW 11 17 6 9 1017.3 1017.3 0.0
20/11:00pm 18.0 16.2 12.0 68 3.3 SSW 13 19 7 10 1017.4 1017.4 0.0
20/10:30pm 18.3 16.2 12.3 68 3.3 SSW 15 20 8 11 1017.5 1017.5 0.0
20/10:00pm 18.1 16.7 12.1 68 3.3 SSW 11 15 6 8 1017.6 1017.6 0.0
20/09:30pm 18.3 16.9 12.3 68 3.3 SSW 11 19 6 10 1017.7 1017.7 0.0
20/09:00pm 18.5 17.6 12.7 69 3.2 S 9 13 5 7 1017.6 1017.6 0.0
20/08:30pm 19.3 16.9 12.6 65 3.8 S 17 24 9 13 1017.5 1017.5 0.0
20/08:00pm 19.6 16.8 12.6 64 3.9 S 19 24 10 13 1017.2 1017.2 0.0
20/07:30pm 19.5 17.8 12.5 64 3.9 SSE 13 20 7 11 1016.8 1016.8 0.0
20/07:00pm 20.0 16.8 11.8 59 4.5 SSE 20 30 11 16 1016.5 1016.5 0.0
20/06:30pm 20.9 17.6 11.5 55 5.2 SSE 20 32 11 17 1016.4 1016.4 0.0
20/06:00pm 21.5 17.7 11.2 52 5.7 SSE 22 32 12 17 1016.0 1016.0 0.0
20/05:30pm 21.6 16.1 10.7 50 6.0 SSE 30 43 16 23 1015.7 1015.7 0.0
20/05:00pm 21.6 15.9 11.3 52 5.7 SSE 32 44 17 24 1015.7 1015.7 0.0
20/04:30pm 22.5 17.2 12.4 52 5.7 SE 32 46 17 25 1015.7 1015.7 0.0
20/04:00pm 23.0 16.9 11.7 49 6.3 SE 35 46 19 25 1015.6 1015.6 0.0
20/03:30pm 23.6 17.9 11.3 46 6.9 SSE 32 43 17 23 1015.7 1015.7 0.0
20/03:00pm 24.0 18.3 11.0 44 7.2 SSE 32 48 17 26 1015.7 1015.7 0.0
20/02:57pm 23.5 17.8 9.9 42 7.4 SSE 30 48 16 26 1015.8 1015.8 0.0
20/02:30pm 24.0 16.9 9.6 40 7.8 SE 37 48 20 26 1015.8 1015.8 0.0
20/02:00pm 25.1 19.3 11.6 42 7.6 SE 33 46 18 25 1016.0 1016.0 0.0
20/01:30pm 25.2 19.1 10.3 39 8.3 SE 33 52 18 28 1016.1 1016.1 0.0
20/01:27pm 24.8 18.4 8.7 36 8.7 SE 32 52 17 28 1016.1 1016.1 0.0
20/01:00pm 25.3 19.7 11.5 42 7.8 SSE 32 46 17 25 1016.2 1016.2 0.0
20/12:30pm 25.2 20.3 12.4 45 7.4 SE 30 39 16 21 1016.4 1016.4 0.0
20/12:00pm 23.7 19.7 11.7 47 6.8 S 24 33 13 18 1016.7 1016.7 0.0
20/11:30am 24.4 20.5 12.0 46 7.1 S 24 35 13 19 1017.0 1017.0 0.0
20/11:00am 24.1 20.2 13.3 51 6.3 S 26 39 14 21 1017.2 1017.2 0.0
20/10:30am 23.4 19.4 13.0 52 6.0 S 26 39 14 21 1017.1 1017.1 0.0
20/10:00am 23.0 19.2 13.5 55 5.5 S 26 35 14 19 1017.1 1017.1 0.0
20/09:30am 22.6 19.7 13.9 58 5.1 SSW 22 32 12 17 1017.0 1017.0 0.0
20/09:00am 21.5 18.6 13.9 62 4.4 SSW 22 39 12 21 1016.8 1016.8 0.0
20/08:30am 20.7 17.4 13.9 65 3.9 SSW 24 37 13 20 1016.8 1016.8 0.0
20/08:00am 19.9 17.9 14.0 69 3.4 SSW 17 26 9 14 1016.7 1016.7 0.0
20/07:30am 18.7 16.7 13.8 73 2.8 SSW 17 24 9 13 1016.5 1016.5 0.0
20/07:00am 18.4 16.4 13.9 75 2.6 SSW 17 22 9 12 1016.3 1016.3 0.0
20/06:30am 18.1 16.1 13.8 76 2.4 SSW 17 24 9 13 1015.8 1015.8 0.0
20/06:00am 17.9 16.3 13.8 77 2.3 SSW 15 20 8 11 1015.4 1015.4 0.0
20/05:30am 18.0 15.6 13.9 77 2.3 SSW 19 28 10 15 1014.9 1014.9 0.0
20/05:00am 18.0 16.1 14.1 78 2.2 SSW 17 28 9 15 1014.6 1014.6 0.0
20/04:30am 18.2 16.0 14.3 78 2.2 SSW 19 30 10 16 1014.3 1014.3 0.0
20/04:00am 18.3 16.1 14.4 78 2.2 SSW 19 28 10 15 1014.2 1014.2 0.0
20/03:30am 18.5 16.2 14.6 78 2.3 SSW 20 30 11 16 1014.2 1014.2 0.0
20/03:00am 18.2 16.4 14.5 79 2.1 SSW 17 32 9 17 1014.3 1014.3 0.0
20/02:30am 18.4 16.1 14.7 79 2.1 SSW 20 37 11 20 1014.4 1014.4 0.0
20/02:00am 18.6 16.0 14.9 79 2.2 SSW 22 32 12 17 1014.7 1014.7 0.0
20/01:30am 18.6 16.5 15.1 80 2.0 SSW 20 32 11 17 1015.0 1015.0 0.0
20/01:00am 18.6 15.5 15.5 82 1.8 SSW 26 39 14 21 1015.1 1015.1 0.0
20/12:30am 18.3 16.0 15.7 85 1.5 SSW 22 35 12 19 1015.5 1015.5 0.0
20/12:00am 18.4 15.8 16.0 86 1.4 SSW 24 35 13 19 1015.8 1015.8 0.0
 
Date/Time
EDT
Temp
°C
App
Temp
°C
Dew
Point
°C
Rel
Hum
%
Delta-T
°C
Wind Press
QNH
hPa
Press
MSL
hPa
Rain since
9am
mm
Dir  Spd
km/h
Gust
km/h
Spd
kts
Gust
kts
19/11:30pm 18.7 15.7 15.9 84 1.7 S 26 39 14 21 1015.6 1015.6 0.0
19/11:00pm 18.3 16.5 16.1 87 1.3 SSW 20 33 11 18 1015.6 1015.6 0.0
19/10:30pm 18.2 15.8 16.4 89 1.1 SSW 24 37 13 20 1015.6 1015.6 0.0
19/10:00pm 19.4 17.2 15.9 80 2.1 SSW 22 33 12 18 1015.6 1015.6 0.0
19/09:30pm 20.2 16.6 15.2 73 2.9 SSW 28 39 15 21 1015.5 1015.5 0.0
19/09:00pm 20.3 17.3 14.9 71 3.2 SSW 24 35 13 19 1015.1 1015.1 0.0
19/08:30pm 20.7 18.1 14.8 69 3.5 SSW 22 41 12 22 1014.4 1014.4 0.0
19/08:00pm 21.2 17.4 14.6 66 3.9 S 28 41 15 22 1013.7 1013.7 0.0
19/07:30pm 21.4 19.7 14.8 66 3.9 SSW 17 26 9 14 1013.3 1013.3 0.0
19/07:00pm 21.5 20.5 15.6 69 3.5 S 15 24 8 13 1012.8 1012.8 0.0
19/06:30pm 22.1 20.0 15.2 65 4.1 S 20 28 11 15 1012.1 1012.0 0.0
19/06:00pm 22.8 21.0 15.6 64 4.3 SSE 19 26 10 14 1011.3 1011.2 0.0
19/05:30pm 22.5 20.7 16.1 67 3.9 SSE 20 28 11 15 1010.9 1010.8 0.0
19/05:00pm 22.6 20.6 16.4 68 3.8 ESE 22 32 12 17 1010.9 1010.8 0.0
19/04:30pm 23.3 22.7 16.6 66 4.1 ESE 15 22 8 12 1010.6 1010.5 0.0
19/04:00pm 22.7 21.2 16.7 69 3.7 ESE 20 26 11 14 1010.8 1010.7 0.0
19/03:30pm 23.1 21.6 15.4 62 4.6 ESE 17 22 9 12 1011.0 1010.9 0.0
19/03:00pm 24.3 22.4 15.2 57 5.5 E 19 24 10 13 1010.9 1010.8 0.0
19/02:30pm 23.6 21.5 14.6 57 5.3 E 19 24 10 13 1011.1 1011.0 0.0
19/02:00pm 23.7 21.9 16.0 62 4.7 ENE 20 26 11 14 1011.0 1010.9 0.0
19/01:30pm 23.0 21.4 15.1 61 4.7 NE 17 22 9 12 1011.3 1011.2 0.0
19/01:00pm 23.0 20.9 14.8 60 4.9 NE 19 26 10 14 1011.2 1011.1 0.0
19/12:30pm 22.9 21.6 15.7 64 4.3 NE 17 20 9 11 1011.5 1011.4 0.0
19/12:00pm 23.5 23.1 16.3 64 4.4 NE 13 19 7 10 1011.7 1011.6 0.0
19/11:30am 22.4 21.8 15.7 66 4.0 NE 13 19 7 10 1012.1 1012.0 0.0
19/11:00am 21.8 20.6 16.1 70 3.4 NE 17 22 9 12 1012.2 1012.1 0.0
19/10:30am 22.0 21.6 16.3 70 3.4 NE 13 17 7 9 1012.1 1012.0 0.0
19/10:00am 21.7 22.3 15.8 69 3.5 N 7 13 4 7 1012.2 1012.1 17.8
19/09:30am 21.1 22.5 16.3 74 2.9 NNW 4 11 2 6 1012.3 1012.3 17.8
19/09:00am 20.2 21.8 16.0 77 2.5 SW 2 6 1 3 1012.3 1012.3 17.8
19/08:30am 19.9 21.7 16.5 81 2.0 W 2 9 1 5 1012.1 1012.0 17.8
19/08:00am 19.4 20.7 17.2 87 1.3 WSW 6 7 3 4 1012.2 1012.1 17.8
19/07:30am 18.5 19.6 17.2 92 0.8 SW 7 9 4 5 1012.3 1012.3 17.8
19/07:00am 17.8 18.6 17.2 96 0.4 SSW 9 11 5 6 1012.1 1012.0 17.8
19/06:30am 17.4 18.3 16.6 95 0.5 SW 7 9 4 5 1011.8 1011.7 17.6
19/06:00am 17.6 18.8 16.8 95 0.5 SSW 6 9 3 5 1011.2 1011.1 17.6
19/05:30am 17.8 19.0 16.8 94 0.6 SSE 6 7 3 4 1010.6 1010.5 17.6
19/05:00am 18.4 19.6 17.4 94 0.6 ENE 7 11 4 6 1010.1 1010.0 17.6
19/04:30am 18.1 19.4 17.1 94 0.6 SE 6 7 3 4 1010.2 1010.1 17.2
19/04:00am 18.0 19.1 17.0 94 0.6 SSE 7 9 4 5 1010.3 1010.2 17.0
19/03:30am 17.9 19.8 16.8 93 0.7 S 2 7 1 4 1010.9 1010.8 16.8
19/03:00am 17.9 17.7 16.8 93 0.7 SE 13 17 7 9 1010.8 1010.7 16.8
19/02:55am 18.0 17.5 16.9 93 0.7 ESE 15 17 8 9 1010.9 1010.8 16.8
19/02:54am 18.0 17.5 16.9 93 0.7 ESE 15 17 8 9 1010.9 1010.8 16.8
19/02:30am 18.0 16.6 16.5 91 0.9 SW 19 39 10 21 1011.9 1011.8 13.8
19/02:19am 18.8 18.0 17.1 90 1.0 SW 17 37 9 20 1012.6 1012.6 7.8
19/02:00am 19.4 20.1 17.9 91 0.9 S 11 17 6 9 1011.4 1011.3 5.4
19/01:51am 19.5 20.4 17.6 89 1.2 S 9 15 5 8 1011.5 1011.4 5.2
19/01:46am 19.5 21.1 17.8 90 1.0 S 6 9 3 5 1011.6 1011.5 5.2
19/01:38am 19.6 21.1 17.7 89 1.2 SSE 6 9 3 5 1011.7 1011.6 5.2
19/01:36am 19.6 21.2 17.9 90 1.0 S 6 9 3 5 1011.8 1011.7 5.2
19/01:30am 19.7 20.8 18.0 90 1.0 S 9 15 5 8 1011.9 1011.8 5.0
19/01:06am 20.5 22.3 18.4 88 1.3 SSE 6 9 3 5 1012.1 1012.0 1.0
19/01:00am 20.6 22.3 18.4 87 1.4 SSE 7 9 4 5 1012.1 1012.0 0.4
19/12:30am 20.8 21.4 17.8 83 1.9 S 11 15 6 8 1012.5 1012.5 0.0
19/12:00am 22.2 22.8 17.6 75 2.8 NNE 11 13 6 7 1012.5 1012.5 0.0
 
Date/Time
EDT
Temp
°C
App
Temp
°C
Dew
Point
°C
Rel
Hum
%
Delta-T
°C
Wind Press
QNH
hPa
Press
MSL
hPa
Rain since
9am
mm
Dir  Spd
km/h
Gust
km/h
Spd
kts
Gust
kts
18/11:30pm 21.7 24.3 17.5 77 2.6 CALM 0 2 0 1 1012.6 1012.6 0.0
18/11:00pm 21.8 23.3 17.6 77 2.6 WSW 6 7 3 4 1013.0 1013.0 0.0
18/10:30pm 21.9 22.9 17.7 77 2.6 W 9 9 5 5 1013.1 1013.1 0.0
18/10:00pm 22.0 22.2 17.6 76 2.7 NW 13 28 7 15 1012.8 1012.8 0.0
18/09:30pm 22.1 20.6 17.7 76 2.7 NNW 22 30 12 16 1012.4 1012.4 0.0
18/09:00pm 22.1 19.9 17.9 77 2.6 NNW 26 35 14 19 1012.4 1012.4 0.0
18/08:30pm 22.2 19.0 18.2 78 2.5 N 32 39 17 21 1012.0 1011.9 0.0
18/08:00pm 22.3 18.9 18.1 77 2.6 N 33 41 18 22 1011.7 1011.6 0.0
18/07:30pm 22.5 18.7 18.1 76 2.7 N 35 44 19 24 1011.3 1011.2 0.0
18/07:00pm 22.6 19.1 17.9 75 2.9 N 33 44 18 24 1011.4 1011.3 0.0
18/06:30pm 22.8 19.3 17.5 72 3.3 N 32 44 17 24 1011.4 1011.3 0.0
18/06:00pm 23.2 20.0 17.2 69 3.7 N 30 39 16 21 1011.3 1011.2 0.0
18/05:30pm 23.9 20.2 16.9 65 4.3 N 32 43 17 23 1011.0 1010.9 0.0
18/05:00pm 24.6 21.1 17.8 66 4.3 N 33 43 18 23 1010.7 1010.6 0.0
18/04:30pm 24.4 20.4 17.6 66 4.2 N 35 43 19 23 1010.6 1010.5 0.0
18/04:00pm 24.8 20.7 17.3 63 4.7 N 35 48 19 26 1010.6 1010.5 0.0
18/03:30pm 24.8 20.4 17.5 64 4.6 N 37 48 20 26 1010.8 1010.7 0.0
18/03:00pm 24.2 19.6 17.2 65 4.3 N 37 48 20 26 1011.0 1010.9 0.0
18/02:30pm 24.6 20.0 18.1 67 4.1 N 39 48 21 26 1011.4 1011.3 0.0
18/02:00pm 25.1 20.8 17.8 64 4.6 N 37 50 20 27 1011.7 1011.6 0.0
18/01:30pm 25.4 21.0 17.6 62 4.9 N 37 44 20 24 1012.0 1011.9 0.0
18/01:00pm 25.8 20.5 16.4 56 5.8 N 39 50 21 27 1012.5 1012.5 0.0
18/12:30pm 25.4 20.2 16.5 58 5.5 N 39 48 21 26 1013.0 1013.0 0.0
18/12:00pm 25.9 20.6 17.3 59 5.4 N 41 52 22 28 1013.4 1013.4 0.0
18/11:30am 24.8 19.3 16.8 61 4.9 N 41 50 22 27 1014.0 1014.0 0.0
18/11:00am 24.9 20.6 16.9 61 4.9 N 35 46 19 25 1014.4 1014.4 0.0
18/10:30am 25.5 20.4 14.9 52 6.4 N 35 44 19 24 1014.9 1014.9 0.0
18/10:00am 25.1 20.3 15.7 56 5.7 N 35 46 19 25 1015.0 1015.0 0.0
18/09:30am 24.9 20.7 16.1 58 5.4 NNW 33 44 18 24 1015.0 1015.0 0.0
18/09:00am 23.7 19.5 14.7 57 5.3 NNW 30 44 16 24 1015.2 1015.2 0.0
18/08:30am 22.7 20.0 15.5 64 4.3 NNW 24 39 13 21 1015.3 1015.3 0.0

Other formats

Comma delimited format used in spreadsheet applications
http://www.bom.gov.au/fwo/IDN60801/IDN60801.94592.axf

JavaScript Object Notation format (JSON) in row-major order
http://www.bom.gov.au/fwo/IDN60801/IDN60801.94592.json

Data quality

Most of these data are generated automatically and are frequently updated. Quality checks on data are not normally performed. It is possible for incorrect values to appear. Refer to information at About Latest Weather Observations and please check the disclaimer before using these data.